BAW96G LHBP-LWSK
Flight info
| Callsign | BAW96G |
|---|---|
| Flight time | N/A |
| Altitude | 37000 |
| Route | FAHAZ2L FAHAZ DCT KEROP DCT REDVA UL616 KOGAT KOGAT1A |
| Aircraft | B77W/H-SDE1E3FGHIJ3J4J5J6M1M2P2RWXYZ/LB1D1 |
Departure
| Time | N/A |
|---|---|
| Airport | Budapest Liszt Ferenc International Airport (LHBP) |
Arrival
| Time | 2026-04-24 18:56 |
|---|---|
| Airport | Skopje International Airport (LWSK) |
| Time | Latitude | Longitude | Altitude | Speed | Heading |
|---|---|---|---|---|---|
| 2026-04-24 18:54 | 41.89778 | 21.64365 | 2210 ft | 156 kts | 346° |
| 2026-04-24 18:55 | 41.91873 | 21.63635 | 1494 ft | 153 kts | 346° |
| 2026-04-24 18:55 | 41.92890 | 21.63273 | 1279 ft | 153 kts | 345° |
| 2026-04-24 18:55 | 41.93922 | 21.62897 | 1053 ft | 153 kts | 349° |
| 2026-04-24 18:56 | 41.94952 | 21.62555 | 811 ft | 148 kts | 348° |
| 2026-04-24 18:56 | 41.95867 | 21.62245 | 787 ft | 122 kts | 345° |
| 2026-04-24 18:56 | 41.96507 | 21.62023 | 792 ft | 68 kts | 345° |
| 2026-04-24 18:56 | 41.96845 | 21.61905 | 794 ft | 22 kts | 345° |
| 2026-04-24 18:57 | 41.96951 | 21.61870 | 794 ft | 9 kts | 356° |
| 2026-04-24 18:57 | 41.96990 | 21.61901 | 794 ft | 5 kts | 67° |
| 2026-04-24 18:57 | 41.96988 | 21.61950 | 794 ft | 6 kts | 104° |
| 2026-04-24 18:57 | 41.96968 | 21.62001 | 794 ft | 7 kts | 124° |
| 2026-04-24 18:58 | 41.96938 | 21.62057 | 794 ft | 8 kts | 126° |
| 2026-04-24 18:58 | 41.96900 | 21.62119 | 793 ft | 9 kts | 135° |
| 2026-04-24 18:58 | 41.96839 | 21.62157 | 793 ft | 10 kts | 171° |
| 2026-04-24 18:58 | 41.96768 | 21.62192 | 793 ft | 11 kts | 159° |
| 2026-04-24 18:59 | 41.96688 | 21.62226 | 792 ft | 13 kts | 163° |
| 2026-04-24 18:59 | 41.96600 | 21.62259 | 792 ft | 14 kts | 166° |
| 2026-04-24 18:59 | 41.96506 | 21.62291 | 791 ft | 14 kts | 166° |
| 2026-04-24 18:59 | 41.96410 | 21.62326 | 791 ft | 15 kts | 165° |
| 2026-04-24 19:00 | 41.96308 | 21.62362 | 790 ft | 16 kts | 165° |
| 2026-04-24 19:00 | 41.96202 | 21.62398 | 789 ft | 16 kts | 166° |
| 2026-04-24 19:00 | 41.96151 | 21.62421 | 789 ft | 6 kts | 153° |
| 2026-04-24 19:00 | 41.96140 | 21.62455 | 789 ft | 3 kts | 86° |
| 2026-04-24 19:01 | 41.96137 | 21.62486 | 789 ft | 4 kts | 95° |
| 2026-04-24 19:01 | 41.96138 | 21.62523 | 789 ft | 3 kts | 84° |
| 2026-04-24 19:01 | 41.96138 | 21.62535 | 789 ft | 1 kts | 88° |
| 2026-04-24 19:01 | 41.96139 | 21.62539 | 789 ft | 1 kts | 79° |
| 2026-04-24 19:02 | 41.96140 | 21.62546 | 789 ft | 0 kts | 80° |
| 2026-04-24 19:02 | 41.96141 | 21.62555 | 789 ft | 0 kts | 80° |